Time;durP1;ratioP1;P1;durP2;ratioP2;P2;SDS_P1;SDS_P2;PMS_P1;PMS_P2;Temp;Humidity;BMP_temperature;BMP_pressure;BME280_temperature;BME280_humidity;BME280_pressure;Samples;Min_cycle;Max_cycle;Signal;HPM_P1;HPM_P2
2023/06/25 00:00:23;;;;;;;9.23;6.88;;;;;;;;;;5033799;28;20383;-77
2023/06/25 00:02:49;;;;;;;10.23;6.93;;;;;;;;;;5017836;28;20053;-77
2023/06/25 00:05:14;;;;;;;8.85;6.35;;;;;;;;;;5032420;28;20029;-76
2023/06/25 00:07:40;;;;;;;10.10;7.25;;;;;;;;;;5026179;28;20100;-77
2023/06/25 00:10:06;;;;;;;9.75;6.75;;;;;;;;;;5021847;28;20116;-78
2023/06/25 00:12:32;;;;;;;11.27;7.45;;;;;;;;;;5030324;28;20058;-77
2023/06/25 00:14:58;;;;;;;9.00;7.07;;;;;;;;;;5010287;28;20473;-78
2023/06/25 00:17:27;;;;;;;8.40;6.55;;;;;;;;;;5019532;28;20030;-77
2023/06/25 00:19:56;;;;;;;9.27;6.85;;;;;;;;;;5040157;28;20063;-76
2023/06/25 00:22:22;;;;;;;11.18;7.43;;;;;;;;;;5016519;28;20134;-77
2023/06/25 00:24:47;;;;;;;10.30;7.03;;;;;;;;;;5024617;28;20036;-77
2023/06/25 00:27:13;;;;;;;11.02;7.40;;;;;;;;;;5013595;28;20029;-77
2023/06/25 00:29:38;;;;;;;9.43;7.38;;;;;;;;;;5032707;28;20032;-79
2023/06/25 00:32:04;;;;;;;9.00;6.82;;;;;;;;;;5020539;28;20564;-76
2023/06/25 00:34:30;;;;;;;8.65;6.78;;;;;;;;;;5036342;28;20168;-76
2023/06/25 00:36:55;;;;;;;9.05;6.88;;;;;;;;;;5024364;28;20197;-78
2023/06/25 00:39:21;;;;;;;9.05;6.80;;;;;;;;;;5017437;28;20021;-76
2023/06/25 00:41:48;;;;;;;11.00;7.00;;;;;;;;;;5023053;28;20110;-77
2023/06/25 00:44:13;;;;;;;8.85;6.50;;;;;;;;;;5039717;28;20032;-76
2023/06/25 00:46:39;;;;;;;10.27;7.03;;;;;;;;;;5020396;28;20030;-76
2023/06/25 00:49:07;;;;;;;8.80;6.50;;;;;;;;;;5035281;28;20033;-76
2023/06/25 00:51:36;;;;;;;8.95;6.72;;;;;;;;;;5011468;28;20116;-77
2023/06/25 00:54:05;;;;;;;10.30;6.72;;;;;;;;;;5022901;28;20045;-77
2023/06/25 00:56:35;;;;;;;10.13;7.00;;;;;;;;;;5029886;28;20024;-77
2023/06/25 00:59:02;;;;;;;10.63;7.28;;;;;;;;;;5026431;28;20052;-76
2023/06/25 01:01:55;;;;;;;9.88;7.20;;;;;;;;;;5017056;28;20029;-76
2023/06/25 01:04:25;;;;;;;;;;;;;;;;;;5035757;28;20029;-76
2023/06/25 01:06:55;;;;;;;9.10;6.88;;;;;;;;;;5028928;28;19913;-76
2023/06/25 01:09:20;;;;;;;9.88;7.25;;;;;;;;;;5033272;28;20064;-76
2023/06/25 01:12:04;;;;;;;11.93;7.63;;;;;;;;;;5027536;28;20489;-78
2023/06/25 01:14:32;;;;;;;10.27;7.72;;;;;;;;;;5016241;28;20394;-76
2023/06/25 01:16:58;;;;;;;11.82;7.03;;;;;;;;;;5042437;28;20024;-76
2023/06/25 01:19:29;;;;;;;11.15;7.72;;;;;;;;;;5028175;28;20018;-77
2023/06/25 01:22:03;;;;;;;10.70;8.02;;;;;;;;;;5037251;28;20022;-77
2023/06/25 01:24:30;;;;;;;11.07;7.72;;;;;;;;;;5032298;28;20029;-77
2023/06/25 01:26:59;;;;;;;10.95;7.70;;;;;;;;;;5033665;28;20079;-76
2023/06/25 01:29:25;;;;;;;12.13;7.78;;;;;;;;;;5016742;28;20029;-76
2023/06/25 01:31:51;;;;;;;12.05;7.90;;;;;;;;;;5027092;28;20024;-77
2023/06/25 01:34:21;;;;;;;10.98;7.53;;;;;;;;;;5035242;28;20042;-77
2023/06/25 01:36:49;;;;;;;12.20;7.40;;;;;;;;;;5017185;28;20024;-77
2023/06/25 01:39:23;;;;;;;10.02;7.70;;;;;;;;;;5045174;28;20017;-77
2023/06/25 01:41:50;;;;;;;11.45;7.90;;;;;;;;;;5020629;28;20021;-77
2023/06/25 01:44:33;;;;;;;11.85;7.88;;;;;;;;;;5038658;28;20032;-79
2023/06/25 01:46:59;;;;;;;9.43;7.28;;;;;;;;;;5025390;28;20021;-77
2023/06/25 01:49:25;;;;;;;10.65;7.78;;;;;;;;;;5020800;28;20040;-77
2023/06/25 01:51:51;;;;;;;10.23;8.05;;;;;;;;;;5031001;28;20025;-77
2023/06/25 01:54:17;;;;;;;11.90;7.20;;;;;;;;;;5036754;28;20029;-77
2023/06/25 01:56:42;;;;;;;10.18;7.82;;;;;;;;;;5016209;28;20543;-77
2023/06/25 01:59:08;;;;;;;10.32;7.88;;;;;;;;;;5017224;28;20029;-77
2023/06/25 02:01:34;;;;;;;9.85;7.20;;;;;;;;;;5013155;28;20470;-77
2023/06/25 02:03:59;;;;;;;9.20;7.25;;;;;;;;;;5040183;28;20031;-76
2023/06/25 02:06:25;;;;;;;11.07;8.18;;;;;;;;;;5036103;28;20601;-77
2023/06/25 02:08:50;;;;;;;10.65;7.57;;;;;;;;;;5038745;28;20037;-77
2023/06/25 02:11:16;;;;;;;10.23;7.20;;;;;;;;;;5021493;28;20116;-78
2023/06/25 02:13:41;;;;;;;9.02;7.40;;;;;;;;;;5015101;28;20025;-79
2023/06/25 02:16:07;;;;;;;10.35;7.15;;;;;;;;;;5019526;28;20033;-77
2023/06/25 02:18:32;;;;;;;9.95;7.35;;;;;;;;;;5036670;28;20052;-77
2023/06/25 02:20:58;;;;;;;9.25;6.95;;;;;;;;;;5027646;28;20501;-76
2023/06/25 02:23:24;;;;;;;9.80;7.13;;;;;;;;;;5017106;28;20401;-77
2023/06/25 02:25:52;;;;;;;10.40;6.93;;;;;;;;;;5021051;28;20017;-77
2023/06/25 02:28:17;;;;;;;10.57;7.30;;;;;;;;;;5018081;28;20390;-77
2023/06/25 02:30:43;;;;;;;10.15;7.28;;;;;;;;;;5033093;28;20025;-78
2023/06/25 02:33:09;;;;;;;9.48;7.15;;;;;;;;;;5017809;28;20033;-76
2023/06/25 02:35:34;;;;;;;11.15;7.35;;;;;;;;;;5018080;28;20032;-76
2023/06/25 02:38:00;;;;;;;11.77;8.07;;;;;;;;;;5031409;28;20022;-76
2023/06/25 02:40:28;;;;;;;9.80;7.72;;;;;;;;;;5019750;28;20029;-78
2023/06/25 02:42:54;;;;;;;10.45;7.22;;;;;;;;;;5021368;28;20501;-77
2023/06/25 02:45:20;;;;;;;10.63;7.68;;;;;;;;;;5020768;28;20025;-77
2023/06/25 02:47:45;;;;;;;10.45;7.63;;;;;;;;;;5036115;28;20498;-77
2023/06/25 02:50:11;;;;;;;9.73;7.28;;;;;;;;;;5019538;28;20106;-78
2023/06/25 02:52:37;;;;;;;9.73;7.70;;;;;;;;;;5017162;28;20053;-77
2023/06/25 02:55:03;;;;;;;10.40;7.57;;;;;;;;;;5043930;28;20029;-77
2023/06/25 02:57:31;;;;;;;10.20;7.15;;;;;;;;;;5013468;28;20029;-78
2023/06/25 02:59:57;;;;;;;11.07;7.60;;;;;;;;;;5036283;28;20029;-76
2023/06/25 03:02:22;;;;;;;10.60;7.38;;;;;;;;;;5020487;28;20024;-78
2023/06/25 03:04:47;;;;;;;10.05;7.30;;;;;;;;;;5032028;28;20453;-76
2023/06/25 03:07:13;;;;;;;11.00;7.88;;;;;;;;;;5014547;28;20033;-78
2023/06/25 03:09:38;;;;;;;10.50;7.57;;;;;;;;;;5014044;28;20033;-77
2023/06/25 03:12:04;;;;;;;9.13;7.40;;;;;;;;;;5040033;28;20044;-78
2023/06/25 03:14:30;;;;;;;11.00;7.75;;;;;;;;;;5017386;28;20104;-77
2023/06/25 03:16:55;;;;;;;9.35;7.00;;;;;;;;;;5018465;28;20120;-77
2023/06/25 03:19:20;;;;;;;9.63;7.38;;;;;;;;;;5011155;28;20052;-76
2023/06/25 03:21:46;;;;;;;10.00;7.38;;;;;;;;;;5016835;28;20083;-76
2023/06/25 03:24:11;;;;;;;11.07;8.02;;;;;;;;;;5012762;28;20100;-76
2023/06/25 03:26:37;;;;;;;10.43;7.68;;;;;;;;;;5016040;28;20029;-77
2023/06/25 03:29:02;;;;;;;10.93;7.85;;;;;;;;;;5016301;28;20108;-76
2023/06/25 03:31:27;;;;;;;10.40;7.78;;;;;;;;;;5033590;28;20540;-77
2023/06/25 03:33:53;;;;;;;10.85;7.78;;;;;;;;;;5038557;28;20030;-77
2023/06/25 03:36:18;;;;;;;11.48;7.90;;;;;;;;;;5017951;28;20393;-77
2023/06/25 03:38:44;;;;;;;10.10;7.75;;;;;;;;;;5044631;28;20078;-77
2023/06/25 03:41:09;;;;;;;11.25;7.65;;;;;;;;;;5022781;28;20466;-77
2023/06/25 03:43:34;;;;;;;9.32;7.22;;;;;;;;;;5034762;28;20029;-77
2023/06/25 03:46:00;;;;;;;11.88;7.88;;;;;;;;;;5037761;28;20142;-76
2023/06/25 03:48:25;;;;;;;9.50;7.07;;;;;;;;;;5037837;28;20026;-77
2023/06/25 03:50:51;;;;;;;10.45;7.68;;;;;;;;;;5052702;28;20017;-76
2023/06/25 03:53:17;;;;;;;8.85;7.20;;;;;;;;;;5025102;28;20032;-77
2023/06/25 03:55:42;;;;;;;9.55;7.10;;;;;;;;;;5020600;28;20035;-76
2023/06/25 03:58:08;;;;;;;9.60;7.35;;;;;;;;;;5031465;28;20452;-77
2023/06/25 04:00:33;;;;;;;11.50;7.90;;;;;;;;;;5020729;28;20029;-77
2023/06/25 04:02:59;;;;;;;10.65;8.05;;;;;;;;;;5034701;28;20026;-77
2023/06/25 04:05:24;;;;;;;10.40;7.40;;;;;;;;;;5024119;28;20478;-77
2023/06/25 04:07:49;;;;;;;11.30;7.75;;;;;;;;;;5017231;28;20040;-78
2023/06/25 04:10:15;;;;;;;9.98;7.72;;;;;;;;;;5021198;28;20051;-77
2023/06/25 04:12:40;;;;;;;11.90;7.65;;;;;;;;;;5026190;28;20083;-78
2023/06/25 04:15:06;;;;;;;11.35;7.43;;;;;;;;;;5036999;28;20112;-76
2023/06/25 04:17:31;;;;;;;10.18;7.55;;;;;;;;;;5018875;28;20025;-77
2023/06/25 04:19:57;;;;;;;10.25;7.85;;;;;;;;;;5014624;28;20453;-77
2023/06/25 04:22:22;;;;;;;10.88;7.80;;;;;;;;;;5017924;28;20036;-77
2023/06/25 04:24:48;;;;;;;9.77;7.45;;;;;;;;;;5035548;28;20033;-77
2023/06/25 04:27:13;;;;;;;9.93;7.80;;;;;;;;;;5040032;28;20025;-77
2023/06/25 04:29:39;;;;;;;11.68;7.63;;;;;;;;;;5016572;28;20036;-78
2023/06/25 04:32:05;;;;;;;12.05;8.70;;;;;;;;;;5018645;28;20021;-77
2023/06/25 04:34:30;;;;;;;11.88;8.10;;;;;;;;;;5015414;28;20029;-77
2023/06/25 04:36:55;;;;;;;9.70;7.07;;;;;;;;;;5017831;28;20151;-77
2023/06/25 04:39:21;;;;;;;11.93;7.65;;;;;;;;;;5018137;28;20025;-80
2023/06/25 04:41:46;;;;;;;11.65;8.18;;;;;;;;;;5042234;28;20033;-77
2023/06/25 04:44:11;;;;;;;11.13;8.30;;;;;;;;;;5015940;28;20033;-77
2023/06/25 04:46:37;;;;;;;11.27;8.82;;;;;;;;;;5033309;28;20033;-77
2023/06/25 04:49:02;;;;;;;11.00;8.40;;;;;;;;;;5034724;28;20049;-77
2023/06/25 04:51:28;;;;;;;10.75;7.95;;;;;;;;;;5016808;28;20029;-78
2023/06/25 04:53:53;;;;;;;12.73;8.93;;;;;;;;;;5025882;28;20112;-77
2023/06/25 04:56:19;;;;;;;11.85;9.32;;;;;;;;;;5037815;28;20025;-77
2023/06/25 04:58:44;;;;;;;12.40;8.55;;;;;;;;;;5038499;28;20029;-78
2023/06/25 05:01:09;;;;;;;13.48;8.43;;;;;;;;;;5017119;28;20048;-78
2023/06/25 05:03:35;;;;;;;9.38;7.30;;;;;;;;;;5043588;28;20029;-79
2023/06/25 05:06:00;;;;;;;11.15;8.05;;;;;;;;;;5012677;28;20095;-77
2023/06/25 05:08:25;;;;;;;10.88;8.43;;;;;;;;;;5027421;28;20116;-77
2023/06/25 05:10:51;;;;;;;11.57;8.45;;;;;;;;;;5026577;28;20445;-77
2023/06/25 05:13:16;;;;;;;10.85;8.43;;;;;;;;;;5013840;28;20041;-77
2023/06/25 05:15:42;;;;;;;11.80;9.40;;;;;;;;;;5034423;28;20489;-78
2023/06/25 05:18:08;;;;;;;11.70;7.97;;;;;;;;;;5033037;28;20025;-77
2023/06/25 05:20:35;;;;;;;12.45;9.35;;;;;;;;;;5017115;28;20033;-77
2023/06/25 05:23:08;;;;;;;11.25;8.68;;;;;;;;;;5015726;28;20029;-81
2023/06/25 05:25:34;;;;;;;13.75;9.80;;;;;;;;;;5018670;28;20108;-78
2023/06/25 05:28:03;;;;;;;11.95;8.25;;;;;;;;;;5035525;28;20024;-78
2023/06/25 05:30:30;;;;;;;10.55;8.40;;;;;;;;;;5037067;28;20027;-77
2023/06/25 05:32:55;;;;;;;11.43;8.35;;;;;;;;;;5033860;28;20029;-77
2023/06/25 05:35:21;;;;;;;10.95;7.80;;;;;;;;;;5034287;28;20370;-77
2023/06/25 05:37:47;;;;;;;12.32;9.32;;;;;;;;;;5036477;28;20025;-77
2023/06/25 05:40:13;;;;;;;11.65;8.73;;;;;;;;;;5014628;28;20033;-78
2023/06/25 05:42:38;;;;;;;14.40;10.27;;;;;;;;;;5035191;28;20543;-77
2023/06/25 05:45:04;;;;;;;13.93;10.68;;;;;;;;;;5011174;28;20025;-78
2023/06/25 05:47:30;;;;;;;12.73;10.32;;;;;;;;;;5014679;28;20116;-77
2023/06/25 05:49:55;;;;;;;13.20;9.75;;;;;;;;;;5012669;28;20593;-77
2023/06/25 05:52:20;;;;;;;13.18;9.73;;;;;;;;;;5028986;28;20421;-79
2023/06/25 05:54:46;;;;;;;13.65;10.15;;;;;;;;;;5037852;28;20029;-77
2023/06/25 05:57:12;;;;;;;13.40;10.23;;;;;;;;;;5033304;28;20396;-78
2023/06/25 05:59:37;;;;;;;12.35;9.32;;;;;;;;;;5032330;28;20059;-77
2023/06/25 06:02:03;;;;;;;13.73;10.18;;;;;;;;;;5017541;28;20498;-77
2023/06/25 06:04:29;;;;;;;13.38;9.60;;;;;;;;;;5012671;28;20080;-79
2023/06/25 06:06:54;;;;;;;13.20;9.65;;;;;;;;;;5024166;28;20044;-77
2023/06/25 06:09:19;;;;;;;15.30;9.60;;;;;;;;;;5010419;28;20026;-81
2023/06/25 06:11:45;;;;;;;13.20;9.57;;;;;;;;;;5034517;28;20091;-78
2023/06/25 06:14:10;;;;;;;13.40;9.60;;;;;;;;;;5010806;28;20123;-78
2023/06/25 06:16:36;;;;;;;13.15;9.70;;;;;;;;;;5013108;28;20037;-77
2023/06/25 06:19:01;;;;;;;13.25;9.35;;;;;;;;;;5015489;28;20014;-77
2023/06/25 06:21:26;;;;;;;13.38;9.25;;;;;;;;;;5035297;28;20718;-78
2023/06/25 06:23:52;;;;;;;12.38;9.07;;;;;;;;;;5030686;28;20505;-77
2023/06/25 06:26:17;;;;;;;12.05;9.35;;;;;;;;;;5022276;28;20036;-78
2023/06/25 06:28:43;;;;;;;11.35;8.50;;;;;;;;;;5033863;28;20168;-77
2023/06/25 06:31:08;;;;;;;11.93;8.52;;;;;;;;;;5018278;28;20066;-78
2023/06/25 06:33:34;;;;;;;12.60;8.73;;;;;;;;;;5035992;28;20114;-77
2023/06/25 06:35:59;;;;;;;11.63;7.97;;;;;;;;;;5021578;28;20036;-78
2023/06/25 06:38:25;;;;;;;12.02;8.30;;;;;;;;;;5003586;28;20515;-78
2023/06/25 06:40:50;;;;;;;11.38;8.05;;;;;;;;;;5030937;28;20032;-78
2023/06/25 06:43:16;;;;;;;14.07;8.90;;;;;;;;;;5031277;28;20090;-78
2023/06/25 06:45:41;;;;;;;11.48;8.50;;;;;;;;;;5012042;28;20033;-79
2023/06/25 06:48:07;;;;;;;11.45;8.07;;;;;;;;;;5010389;28;20366;-78
2023/06/25 06:50:32;;;;;;;10.02;7.57;;;;;;;;;;5027085;28;20119;-78
2023/06/25 06:52:58;;;;;;;10.45;7.30;;;;;;;;;;5014498;28;20481;-78
2023/06/25 06:55:23;;;;;;;10.98;7.70;;;;;;;;;;5035588;28;20044;-78
2023/06/25 06:57:49;;;;;;;10.70;7.57;;;;;;;;;;5038575;28;20029;-78
2023/06/25 07:00:17;;;;;;;9.00;6.53;;;;;;;;;;5027661;28;20104;-79
2023/06/25 07:02:42;;;;;;;10.07;6.88;;;;;;;;;;5028302;28;20076;-78
2023/06/25 07:05:08;;;;;;;9.18;6.80;;;;;;;;;;5028973;28;20026;-78
2023/06/25 07:07:34;;;;;;;9.13;7.03;;;;;;;;;;5032077;28;20100;-78
2023/06/25 07:10:00;;;;;;;9.90;7.13;;;;;;;;;;5037419;28;20025;-78
2023/06/25 07:12:25;;;;;;;10.88;7.40;;;;;;;;;;5039247;28;20520;-79
2023/06/25 07:14:50;;;;;;;10.10;7.25;;;;;;;;;;5039667;28;20040;-78
2023/06/25 07:17:16;;;;;;;9.57;6.63;;;;;;;;;;5031711;28;20035;-79
2023/06/25 07:19:41;;;;;;;9.15;6.55;;;;;;;;;;5023906;28;20025;-79
2023/06/25 07:22:07;;;;;;;8.98;6.20;;;;;;;;;;5044297;28;20029;-77
2023/06/25 07:24:32;;;;;;;8.82;6.00;;;;;;;;;;5040894;28;20409;-80
2023/06/25 07:26:58;;;;;;;10.10;7.28;;;;;;;;;;5017443;28;20033;-78
2023/06/25 07:29:23;;;;;;;9.48;6.97;;;;;;;;;;5014605;28;20474;-78
2023/06/25 07:31:49;;;;;;;10.18;5.90;;;;;;;;;;5039058;28;20036;-78
2023/06/25 07:34:14;;;;;;;11.02;6.25;;;;;;;;;;5037940;28;20088;-77
2023/06/25 07:36:40;;;;;;;9.07;6.00;;;;;;;;;;5023232;28;20021;-78
2023/06/25 07:39:05;;;;;;;8.00;5.70;;;;;;;;;;5018031;28;20061;-78
2023/06/25 07:41:30;;;;;;;9.30;5.38;;;;;;;;;;5014294;28;20029;-78
2023/06/25 07:43:56;;;;;;;8.77;6.25;;;;;;;;;;5042676;28;20029;-77
2023/06/25 07:46:22;;;;;;;10.00;6.47;;;;;;;;;;5038292;28;20025;-77
2023/06/25 07:48:48;;;;;;;8.50;5.97;;;;;;;;;;5035840;28;20044;-77
2023/06/25 07:51:13;;;;;;;8.23;5.53;;;;;;;;;;5019375;28;20466;-77
2023/06/25 07:53:38;;;;;;;8.20;5.32;;;;;;;;;;5037137;28;20055;-77
2023/06/25 07:56:04;;;;;;;8.82;5.53;;;;;;;;;;5031955;28;20029;-77
2023/06/25 07:58:29;;;;;;;8.45;5.22;;;;;;;;;;5035814;28;20423;-76
2023/06/25 08:00:55;;;;;;;8.20;5.57;;;;;;;;;;5021563;28;20092;-76
2023/06/25 08:03:22;;;;;;;7.60;4.43;;;;;;;;;;5032678;28;20021;-77
2023/06/25 08:05:47;;;;;;;7.47;5.15;;;;;;;;;;5018962;28;20040;-77
2023/06/25 08:08:13;;;;;;;9.68;6.05;;;;;;;;;;5035595;28;20033;-76
2023/06/25 08:10:38;;;;;;;8.10;5.38;;;;;;;;;;5035736;28;20021;-77
2023/06/25 08:13:04;;;;;;;8.10;5.65;;;;;;;;;;5032610;28;20045;-76
2023/06/25 08:15:29;;;;;;;7.38;5.47;;;;;;;;;;5018312;28;20537;-77
2023/06/25 08:17:54;;;;;;;9.70;6.28;;;;;;;;;;5041672;28;20030;-79
2023/06/25 08:20:20;;;;;;;8.82;6.53;;;;;;;;;;5038297;28;20573;-79
2023/06/25 08:22:45;;;;;;;8.13;6.30;;;;;;;;;;5060060;28;20029;-80
2023/06/25 08:25:25;;;;;;;8.93;5.82;;;;;;;;;;5591332;22;20024;-79
2023/06/25 08:27:51;;;;;;;11.30;6.47;;;;;;;;;;5070838;28;20050;-78
2023/06/25 08:30:17;;;;;;;8.52;6.32;;;;;;;;;;5076255;28;20117;-79
2023/06/25 08:32:42;;;;;;;8.32;5.97;;;;;;;;;;5074208;28;20060;-80
2023/06/25 08:35:08;;;;;;;11.02;6.22;;;;;;;;;;5060539;28;20029;-79
2023/06/25 08:37:34;;;;;;;11.27;5.60;;;;;;;;;;5074496;28;20032;-79
2023/06/25 08:39:59;;;;;;;10.35;7.40;;;;;;;;;;5067429;28;20025;-75
2023/06/25 08:42:26;;;;;;;8.93;5.63;;;;;;;;;;5058338;28;20056;-77
2023/06/25 08:44:52;;;;;;;7.78;5.00;;;;;;;;;;5062559;28;20111;-79
2023/06/25 08:47:19;;;;;;;7.35;4.20;;;;;;;;;;5046583;28;20445;-76
2023/06/25 08:49:49;;;;;;;8.73;4.93;;;;;;;;;;5044722;28;20028;-75
2023/06/25 08:52:18;;;;;;;8.02;5.55;;;;;;;;;;5054774;28;20397;-76
2023/06/25 08:54:44;;;;;;;11.30;6.70;;;;;;;;;;5066795;28;20020;-76
2023/06/25 08:57:10;;;;;;;10.38;7.28;;;;;;;;;;5075401;28;20073;-77
2023/06/25 08:59:35;;;;;;;11.48;6.57;;;;;;;;;;5063943;28;20028;-75
2023/06/25 09:02:01;;;;;;;9.80;7.07;;;;;;;;;;5072548;28;20034;-75
2023/06/25 09:04:26;;;;;;;10.35;6.30;;;;;;;;;;5051442;28;20052;-75
2023/06/25 09:06:53;;;;;;;10.82;7.30;;;;;;;;;;5050977;28;20511;-75
2023/06/25 09:09:18;;;;;;;8.40;5.80;;;;;;;;;;5063879;28;20028;-75
2023/06/25 09:11:44;;;;;;;9.55;5.43;;;;;;;;;;5071030;28;20028;-76
2023/06/25 09:14:09;;;;;;;8.88;6.28;;;;;;;;;;5062385;28;20028;-75
2023/06/25 09:16:48;;;;;;;8.57;5.80;;;;;;;;;;5051334;28;20055;-77
2023/06/25 09:19:21;;;;;;;9.82;7.72;;;;;;;;;;5069042;28;20046;-76
2023/06/25 09:21:46;;;;;;;8.38;5.60;;;;;;;;;;5052949;28;20090;-76
2023/06/25 09:24:18;;;;;;;11.63;6.85;;;;;;;;;;5049608;28;20476;-75
2023/06/25 09:26:50;;;;;;;10.20;6.18;;;;;;;;;;5051386;28;20075;-76
2023/06/25 09:29:17;;;;;;;6.88;4.80;;;;;;;;;;5033056;28;20039;-78
2023/06/25 09:31:44;;;;;;;8.15;5.32;;;;;;;;;;5041053;28;20039;-75
2023/06/25 09:34:13;;;;;;;7.43;4.75;;;;;;;;;;5055504;28;20028;-76
2023/06/25 09:36:39;;;;;;;8.73;5.45;;;;;;;;;;5031695;28;20064;-77
2023/06/25 09:39:05;;;;;;;7.22;5.05;;;;;;;;;;5037141;28;21472;-76
2023/06/25 09:41:36;;;;;;;9.40;5.50;;;;;;;;;;5028262;28;20091;-75
2023/06/25 09:44:06;;;;;;;8.82;5.47;;;;;;;;;;5031279;28;20029;-75
2023/06/25 09:46:39;;;;;;;8.38;5.10;;;;;;;;;;5046223;28;20021;-75
2023/06/25 09:49:07;;;;;;;7.85;5.18;;;;;;;;;;5027939;28;20029;-75
2023/06/25 09:51:41;;;;;;;8.32;5.40;;;;;;;;;;5028057;28;20470;-75
2023/06/25 09:54:08;;;;;;;10.00;5.90;;;;;;;;;;5047567;28;20607;-75
2023/06/25 09:56:34;;;;;;;6.30;4.00;;;;;;;;;;5057407;28;20397;-74
2023/06/25 09:59:01;;;;;;;6.05;4.60;;;;;;;;;;5043404;28;20028;-75
2023/06/25 10:01:26;;;;;;;6.80;3.95;;;;;;;;;;5049342;28;20429;-77
2023/06/25 10:03:52;;;;;;;6.35;4.32;;;;;;;;;;5047278;28;20025;-80
2023/06/25 10:06:17;;;;;;;5.50;3.28;;;;;;;;;;5051526;28;20025;-81
2023/06/25 10:08:43;;;;;;;6.47;3.80;;;;;;;;;;5048600;28;20032;-81
2023/06/25 10:11:08;;;;;;;6.85;3.80;;;;;;;;;;5034548;28;20021;-81
2023/06/25 10:13:39;;;;;;;6.05;3.75;;;;;;;;;;5060717;28;20037;-82
2023/06/25 10:16:04;;;;;;;5.57;3.67;;;;;;;;;;5044042;28;20032;-79
2023/06/25 10:18:30;;;;;;;5.93;3.90;;;;;;;;;;5053978;28;20075;-81
2023/06/25 10:21:01;;;;;;;6.80;3.95;;;;;;;;;;5042636;28;20027;-82
2023/06/25 10:23:27;;;;;;;5.18;3.78;;;;;;;;;;5035479;28;20024;-80
2023/06/25 10:25:57;;;;;;;6.30;4.00;;;;;;;;;;5044201;28;20036;-87
2023/06/25 10:28:30;;;;;;;5.72;3.80;;;;;;;;;;5041062;28;20033;-80
2023/06/25 10:30:56;;;;;;;;;;;;;;;;;;5039402;28;20028;-81
2023/06/25 10:33:22;;;;;;;6.60;3.60;;;;;;;;;;5028547;28;20696;-80
2023/06/25 10:35:53;;;;;;;4.60;3.30;;;;;;;;;;5059924;28;20104;-79
2023/06/25 10:38:19;;;;;;;4.82;3.50;;;;;;;;;;5038475;28;20012;-80
2023/06/25 10:40:46;;;;;;;5.43;3.72;;;;;;;;;;5036901;28;20404;-81
2023/06/25 10:43:19;;;;;;;5.72;3.40;;;;;;;;;;5050610;28;20108;-79
2023/06/25 10:45:52;;;;;;;6.45;3.40;;;;;;;;;;5032096;28;20040;-80
2023/06/25 10:48:18;;;;;;;6.25;3.50;;;;;;;;;;5048649;28;20040;-80
2023/06/25 10:50:44;;;;;;;4.57;3.20;;;;;;;;;;5060398;28;20063;-81
2023/06/25 10:53:17;;;;;;;6.20;3.13;;;;;;;;;;5054235;28;20502;-79
2023/06/25 10:55:47;;;;;;;4.85;3.83;;;;;;;;;;5038810;28;20028;-80
2023/06/25 10:58:17;;;;;;;5.47;3.60;;;;;;;;;;5029661;28;20025;-78
2023/06/25 11:00:43;;;;;;;4.25;3.25;;;;;;;;;;5032419;28;20108;-80
2023/06/25 11:03:09;;;;;;;6.40;3.33;;;;;;;;;;5032943;28;20393;-79
2023/06/25 11:05:42;;;;;;;5.00;3.60;;;;;;;;;;5034610;28;20036;-80
2023/06/25 11:08:08;;;;;;;6.43;3.78;;;;;;;;;;5048086;28;20029;-82
2023/06/25 11:10:36;;;;;;;5.15;3.55;;;;;;;;;;5041557;28;20501;-80
2023/06/25 11:13:02;;;;;;;5.57;3.33;;;;;;;;;;5031367;28;20033;-79
2023/06/25 11:15:32;;;;;;;5.72;3.50;;;;;;;;;;5020992;28;20102;-79
2023/06/25 11:17:58;;;;;;;6.80;3.30;;;;;;;;;;5045714;28;20029;-80
2023/06/25 11:20:25;;;;;;;5.22;3.33;;;;;;;;;;5043349;28;20056;-79
2023/06/25 11:22:50;;;;;;;4.40;3.03;;;;;;;;;;5027419;28;20155;-78
2023/06/25 11:25:16;;;;;;;4.70;3.35;;;;;;;;;;5025869;28;20153;-79
2023/06/25 11:27:42;;;;;;;5.60;3.42;;;;;;;;;;5024831;28;20039;-79
2023/06/25 11:30:08;;;;;;;5.10;3.15;;;;;;;;;;5046988;28;20041;-79
2023/06/25 11:32:37;;;;;;;4.60;3.00;;;;;;;;;;5027856;28;20033;-80
2023/06/25 11:35:12;;;;;;;4.32;3.38;;;;;;;;;;5045488;28;20037;-79
2023/06/25 11:37:48;;;;;;;5.32;3.30;;;;;;;;;;5015346;28;20107;-79
2023/06/25 11:40:43;;;;;;;9.70;3.25;;;;;;;;;;5016496;28;20029;-79
2023/06/25 11:43:08;;;;;;;4.40;2.97;;;;;;;;;;5007044;28;20100;-79
2023/06/25 11:45:42;;;;;;;5.75;3.30;;;;;;;;;;5027077;28;20190;-79
2023/06/25 11:48:12;;;;;;;6.18;3.78;;;;;;;;;;5022127;28;20477;-78
2023/06/25 11:50:38;;;;;;;7.13;3.85;;;;;;;;;;5027511;28;20059;-79
2023/06/25 11:53:03;;;;;;;4.55;3.50;;;;;;;;;;5026195;28;20055;-79
2023/06/25 11:55:28;;;;;;;5.70;3.35;;;;;;;;;;5019992;28;20087;-79
2023/06/25 11:57:54;;;;;;;4.25;3.25;;;;;;;;;;5032302;28;20029;-79
2023/06/25 12:00:19;;;;;;;5.40;3.38;;;;;;;;;;5034589;28;20103;-79
2023/06/25 12:02:45;;;;;;;5.13;3.83;;;;;;;;;;5032902;28;20040;-79
2023/06/25 12:05:10;;;;;;;4.85;3.28;;;;;;;;;;5038722;28;20032;-80
2023/06/25 12:07:37;;;;;;;5.25;3.17;;;;;;;;;;5026266;28;20033;-80
2023/06/25 12:10:02;;;;;;;4.60;3.50;;;;;;;;;;5030901;28;20028;-80
2023/06/25 12:12:28;;;;;;;4.80;3.40;;;;;;;;;;5036451;28;20020;-79
2023/06/25 12:14:53;;;;;;;4.30;3.10;;;;;;;;;;5036971;28;20528;-80
2023/06/25 12:17:18;;;;;;;5.03;3.22;;;;;;;;;;5053444;28;20028;-80
2023/06/25 12:19:44;;;;;;;4.72;3.22;;;;;;;;;;5052759;28;20497;-81
2023/06/25 12:22:10;;;;;;;4.55;3.20;;;;;;;;;;5039700;28;20021;-81
2023/06/25 12:24:35;;;;;;;5.28;3.50;;;;;;;;;;5031047;28;20028;-80
2023/06/25 12:27:01;;;;;;;4.88;3.67;;;;;;;;;;5037352;28;20040;-81
2023/06/25 12:29:26;;;;;;;6.13;3.40;;;;;;;;;;5034366;28;20059;-81
2023/06/25 12:31:52;;;;;;;5.65;3.47;;;;;;;;;;5054786;28;20120;-81
2023/06/25 12:34:17;;;;;;;4.85;3.50;;;;;;;;;;5047901;28;20031;-79
2023/06/25 12:36:42;;;;;;;4.47;3.40;;;;;;;;;;5024553;28;20028;-79
2023/06/25 12:39:08;;;;;;;4.78;3.60;;;;;;;;;;5042317;28;20040;-79
2023/06/25 12:41:33;;;;;;;4.40;2.90;;;;;;;;;;5040581;28;20036;-81
2023/06/25 12:43:59;;;;;;;4.65;3.20;;;;;;;;;;5027750;28;20033;-81
2023/06/25 12:46:24;;;;;;;5.57;3.50;;;;;;;;;;5040390;28;20029;-80
2023/06/25 12:48:50;;;;;;;6.10;3.50;;;;;;;;;;5046621;28;20033;-80
2023/06/25 12:51:15;;;;;;;4.20;3.35;;;;;;;;;;5051828;28;20021;-80
2023/06/25 12:53:41;;;;;;;5.78;3.38;;;;;;;;;;5048853;28;20082;-78
2023/06/25 12:56:06;;;;;;;4.32;3.33;;;;;;;;;;5043450;28;20032;-80
2023/06/25 12:58:32;;;;;;;4.63;3.60;;;;;;;;;;5050215;28;20037;-80
2023/06/25 13:00:58;;;;;;;4.85;3.58;;;;;;;;;;5048099;28;20037;-79
2023/06/25 13:03:23;;;;;;;4.22;3.30;;;;;;;;;;5056117;28;20162;-80
2023/06/25 13:05:49;;;;;;;4.88;3.80;;;;;;;;;;5029483;28;20119;-79
2023/06/25 13:08:14;;;;;;;4.30;3.35;;;;;;;;;;5047216;28;20856;-80
2023/06/25 13:10:40;;;;;;;5.70;3.50;;;;;;;;;;5047984;28;20130;-79
2023/06/25 13:13:07;;;;;;;5.35;4.05;;;;;;;;;;5030176;28;20027;-79
2023/06/25 13:15:32;;;;;;;5.60;3.65;;;;;;;;;;5031842;28;20086;-79
2023/06/25 13:17:58;;;;;;;7.00;4.00;;;;;;;;;;5033083;28;20607;-80
2023/06/25 13:20:24;;;;;;;8.25;4.40;;;;;;;;;;5053718;28;20039;-80
2023/06/25 13:22:49;;;;;;;4.60;3.60;;;;;;;;;;5033413;28;20090;-80
2023/06/25 13:25:15;;;;;;;5.00;3.67;;;;;;;;;;5056410;28;20104;-80
2023/06/25 13:27:40;;;;;;;4.32;3.58;;;;;;;;;;5048867;28;20041;-79
2023/06/25 13:30:07;;;;;;;4.60;3.60;;;;;;;;;;5032212;28;20056;-79
2023/06/25 13:32:33;;;;;;;5.93;3.70;;;;;;;;;;5034706;28;20124;-79
2023/06/25 13:34:58;;;;;;;4.82;3.63;;;;;;;;;;5026409;28;20143;-79
2023/06/25 13:37:23;;;;;;;5.72;3.50;;;;;;;;;;5016819;28;20037;-79
2023/06/25 13:39:49;;;;;;;4.97;3.78;;;;;;;;;;5038357;28;20413;-80
2023/06/25 13:42:14;;;;;;;4.78;3.60;;;;;;;;;;5024019;28;20106;-79
2023/06/25 13:44:39;;;;;;;5.38;3.72;;;;;;;;;;5022985;28;20040;-79
2023/06/25 13:47:05;;;;;;;4.50;3.50;;;;;;;;;;5019840;28;20021;-79
2023/06/25 13:49:31;;;;;;;6.07;3.75;;;;;;;;;;5031862;28;20060;-78
2023/06/25 13:51:56;;;;;;;4.88;3.63;;;;;;;;;;5038913;28;20413;-79
2023/06/25 13:54:22;;;;;;;4.38;3.70;;;;;;;;;;5035517;28;20497;-79
2023/06/25 13:56:47;;;;;;;4.78;3.67;;;;;;;;;;5021610;28;20136;-79
2023/06/25 13:59:13;;;;;;;6.85;3.65;;;;;;;;;;5030210;28;20361;-79
2023/06/25 14:01:40;;;;;;;4.90;3.70;;;;;;;;;;5028014;28;20025;-80
2023/06/25 14:04:06;;;;;;;4.55;3.60;;;;;;;;;;5023263;28;20029;-79
2023/06/25 14:06:31;;;;;;;4.75;3.58;;;;;;;;;;5037376;28;20508;-78
2023/06/25 14:08:57;;;;;;;5.00;3.70;;;;;;;;;;5025486;28;20504;-78
2023/06/25 14:11:22;;;;;;;5.32;3.70;;;;;;;;;;5021062;28;20025;-79
2023/06/25 14:13:47;;;;;;;4.72;3.55;;;;;;;;;;5024614;28;20130;-78
2023/06/25 14:16:13;;;;;;;4.82;3.90;;;;;;;;;;5038403;28;20030;-79
2023/06/25 14:18:39;;;;;;;4.85;3.75;;;;;;;;;;5022706;28;20716;-78
2023/06/25 14:21:04;;;;;;;6.20;3.60;;;;;;;;;;5036392;28;20020;-79
2023/06/25 14:23:29;;;;;;;4.70;3.75;;;;;;;;;;5037917;28;20032;-78
2023/06/25 14:25:55;;;;;;;6.00;3.80;;;;;;;;;;5028188;28;20472;-78
2023/06/25 14:28:21;;;;;;;4.55;3.60;;;;;;;;;;5029368;28;20296;-79
2023/06/25 14:30:46;;;;;;;5.13;3.72;;;;;;;;;;5041088;28;20036;-79
2023/06/25 14:33:12;;;;;;;4.97;4.00;;;;;;;;;;5043097;28;20031;-78